Aviation Digital Data Service (ADDS)

Output produced by METARs form (0201 UTC 27 February 2017)
found at http://www.aviationweather.gov/adds/metars/
 
KILG 270151Z AUTO 29005KT 10SM CLR 02/M07 A3028 RMK AO2 SLP255 T00171072
KILG 262330Z 2700/2724 29012KT P6SM SKC 
     FM270100 27005KT P6SM SKC 
     FM270800 VRB03KT P6SM SKC 
     FM271200 20006KT P6SM BKN120 
     FM271800 21010G18KT P6SM SCT060 OVC090 
     FM272300 22008KT P6SM SCT060 BKN090